Latest Weather Observations for Barimunya

IDW60801

Issued at 12:02 pm WST Friday 29 April 2016 (issued every 30 minutes, with the page automatically refreshed every 10 minutes)

About weather observations | Map of weather stations | Latest weather observations for WA | Other Formats
Station Details ID: 505053 Name: BARIMUNYA Lat: -22.67 Lon: 119.16 Height: 629.17 m
Data from the previous 72 hours. | See also: Recent months for locations in Western Australia
Date/Time
WST
Temp
°C
App
Temp
°C
Dew
Point
Rel
Hum
%
Delta-T
°C
Wind Press
QNH
hPa
Press
MSL
hPa
Rain
since 9 am
mm
Dir
 
Spd
km/h
Gust
km/h
Spd
kts
Gust
kts
29/12:00pm 26.5 22.2 7.0 29 10.6 ESE 19 24 10 13 1015.8 1011.9 0.0
29/11:30am 25.7 21.4 6.8 30 10.2 SE 19 28 10 15 1016.1 1012.2 0.0
29/11:00am 24.6 20.2 6.4 31 9.7 SE 19 28 10 15 1016.7 1012.9 0.0
29/10:30am 23.4 18.6 5.8 32 9.2 SE 20 30 11 16 1017.1 1013.3 0.0
29/10:00am 23.0 18.2 5.4 32 9.1 SE 20 32 11 17 1017.5 1013.6 0.0
29/09:30am 22.8 17.3 5.7 33 8.9 SE 24 35 13 19 1017.7 1013.9 0.0
29/09:00am 22.1 16.1 5.5 34 8.5 SE 26 35 14 19 1017.7 1013.9 0.0
29/08:30am 22.1 17.2 5.1 33 8.7 SE 20 30 11 16 1017.7 1013.9 0.0
29/08:00am 21.0 15.6 4.6 34 8.2 SE 22 28 12 15 1017.4 1013.5 0.0
29/07:30am 20.4 15.1 4.8 36 7.9 SSE 22 30 12 16 1017.0 1013.2 0.0
29/07:00am 20.5 16.1 4.9 36 7.9 SSE 17 24 9 13 1016.8 1013.0 0.0
29/06:30am 20.4 15.7 5.2 37 7.7 SSE 19 24 10 13 1016.5 1012.7 0.0
29/06:00am 20.6 15.8 5.4 37 7.7 SSE 20 26 11 14 1016.3 1012.5 0.0
29/05:30am 20.7 16.2 5.9 38 7.6 SSE 19 26 10 14 1015.9 1012.0 0.0
29/05:00am 21.1 16.5 6.6 39 7.6 SSE 20 28 11 15 1015.8 1011.9 0.0
29/04:30am 21.6 17.3 7.1 39 7.7 SSE 19 26 10 14 1015.4 1011.6 0.0
29/04:00am 21.7 17.8 7.2 39 7.7 SSE 17 22 9 12 1015.4 1011.6 0.0
29/03:30am 21.8 17.9 7.2 39 7.8 SSE 17 22 9 12 1015.1 1011.3 0.0
29/03:00am 22.0 18.5 7.4 39 7.8 SE 15 20 8 11 1015.1 1011.3 0.0
29/02:30am 22.2 17.8 7.6 39 7.8 SSE 20 24 11 13 1015.1 1011.3 0.0
29/02:00am 22.5 18.8 7.9 39 7.9 SSE 17 20 9 11 1014.9 1011.1 0.0
29/01:30am 22.6 20.1 8.0 39 7.9 SSE 11 15 6 8 1015.1 1011.3 0.0
29/01:00am 22.7 19.8 8.0 39 8.0 SSE 13 19 7 10 1015.2 1011.4 0.0
29/12:30am 22.9 19.3 8.2 39 8.0 S 17 22 9 12 1015.5 1011.7 0.0
29/12:00am 22.9 19.5 7.8 38 8.2 SSE 15 20 8 11 1015.2 1011.4 0.0
 
Date/Time
WST
Temp
°C
App
Temp
°C
Dew
Point
Rel
Hum
%
Delta-T
°C
Wind Press
QNH
hPa
Press
MSL
hPa
Rain
since 9 am
mm
Dir
 
Spd
km/h
Gust
km/h
Spd
kts
Gust
kts
28/11:30pm 23.1 18.5 8.0 38 8.2 S 22 28 12 15 1015.3 1011.5 0.0
28/11:00pm 23.3 18.2 7.8 37 8.4 S 24 32 13 17 1015.5 1011.7 0.0
28/10:30pm 23.8 18.8 8.2 37 8.5 S 24 32 13 17 1015.5 1011.7 0.0
28/10:00pm 24.1 19.6 8.5 37 8.6 S 22 28 12 15 1015.5 1011.7 0.0
28/09:30pm 24.5 20.0 8.5 36 8.8 S 22 30 12 16 1015.8 1011.9 0.0
28/09:00pm 24.8 20.3 8.7 36 8.9 S 22 30 12 16 1015.4 1011.6 0.0
28/08:30pm 25.2 20.5 9.1 36 9.0 S 24 30 13 16 1015.3 1011.5 0.0
28/08:00pm 25.5 20.3 8.9 35 9.3 S 26 33 14 18 1015.0 1011.2 0.0
28/07:30pm 26.0 21.6 8.9 34 9.6 S 22 32 12 17 1014.7 1010.8 0.0
28/07:00pm 27.0 23.3 9.4 33 10.0 SSW 19 24 10 13 1014.2 1010.3 0.0
28/06:30pm 27.4 24.0 9.3 32 10.3 SSW 17 22 9 12 1013.8 1010.0 0.0
28/06:00pm 27.8 24.4 9.1 31 10.6 SSW 17 26 9 14 1013.3 1009.5 0.0
28/05:30pm 28.3 25.3 9.1 30 10.9 SW 15 22 8 12 1013.2 1009.3 0.0
28/05:00pm 28.5 24.6 8.7 29 11.2 SW 19 26 10 14 1013.0 1009.1 0.0
28/04:30pm 29.4 24.5 8.5 27 11.8 SW 24 33 13 18 1012.7 1008.8 0.0
28/04:00pm 31.1 24.6 8.2 24 13.0 W 32 50 17 27 1012.5 1008.6 0.0
28/03:56pm 31.2 25.3 7.6 23 13.3 W 28 50 15 27 1012.4 1008.5 0.0
28/03:30pm 32.5 28.7 5.9 19 14.6 W 15 28 8 15 1012.1 1008.3 0.0
28/03:00pm 31.4 27.4 6.5 21 13.8 WNW 17 28 9 15 1012.1 1008.3 0.0
28/02:30pm 32.0 26.7 7.0 21 14.0 W 24 35 13 19 1012.3 1008.4 0.0
28/02:00pm 32.2 27.7 7.1 21 14.1 WNW 20 35 11 19 1012.4 1008.5 0.0
28/01:30pm 31.2 27.3 7.0 22 13.5 WSW 17 28 9 15 1012.6 1008.7 0.0
28/01:00pm 31.0 27.9 8.7 25 12.8 W 15 24 8 13 1013.2 1009.3 0.0
28/12:30pm 30.4 27.3 8.7 26 12.4 W 15 32 8 17 1013.5 1009.7 0.0
28/12:00pm 29.5 26.7 10.1 30 11.3 SW 15 28 8 15 1014.0 1010.1 0.0
28/11:30am 28.4 26.6 9.6 31 10.8 WNW 9 22 5 12 1014.5 1010.6 0.0
28/11:00am 27.6 27.2 11.2 36 9.6 W 4 9 2 5 1015.2 1011.4 0.0
28/10:30am 25.8 24.7 10.8 39 8.7 SW 7 13 4 7 1015.5 1011.7 0.0
28/10:00am 25.8 25.0 11.6 41 8.3 S 7 13 4 7 1016.1 1012.2 0.0
28/09:30am 25.2 23.3 11.7 43 7.9 SSW 13 20 7 11 1016.4 1012.6 0.0
28/09:00am 23.8 21.5 11.8 47 7.0 S 15 20 8 11 1016.3 1012.5 0.0
28/08:30am 23.3 21.0 11.7 48 6.7 SSW 15 19 8 10 1016.0 1012.1 0.0
28/08:00am 22.8 20.8 11.5 49 6.5 SSW 13 19 7 10 1015.7 1011.8 0.0
28/07:30am 22.5 21.2 11.3 49 6.4 S 9 13 5 7 1015.4 1011.6 0.0
28/07:00am 21.7 21.0 11.4 52 5.9 S 6 11 3 6 1015.2 1011.4 0.0
28/06:30am 20.1 18.9 10.2 53 5.5 S 7 9 4 5 1014.8 1011.0 0.0
28/06:00am 20.3 19.2 10.1 52 5.7 S 6 7 3 4 1014.8 1011.0 0.0
28/05:30am 21.0 19.9 10.5 51 5.9 S 7 9 4 5 1014.5 1010.6 0.0
28/05:00am 21.3 20.1 10.2 49 6.2 S 7 9 4 5 1014.6 1010.7 0.0
28/04:30am 21.4 19.7 9.9 48 6.4 S 9 9 5 5 1014.5 1010.6 0.0
28/04:00am 20.5 19.3 9.4 49 6.1 SSW 6 7 3 4 1014.4 1010.5 0.0
28/03:30am 20.4 20.0 8.4 46 6.5 CALM 0 0 0 0 1014.3 1010.4 0.0
28/03:00am 21.4 21.0 8.3 43 7.1 CALM 0 0 0 0 1014.4 1010.5 0.0
28/02:30am 21.4 21.1 8.7 44 6.9 CALM 0 0 0 0 1014.6 1010.7 0.0
28/02:00am 22.2 20.8 8.7 42 7.4 SSW 6 7 3 4 1014.5 1010.6 0.0
28/01:30am 23.0 22.0 9.0 41 7.7 SSW 4 7 2 4 1014.3 1010.4 0.0
28/01:00am 23.4 21.8 8.7 39 8.1 SSW 7 7 4 4 1014.4 1010.5 0.0
28/12:30am 23.9 22.5 8.7 38 8.4 SSW 6 9 3 5 1014.4 1010.5 0.0
28/12:00am 24.1 22.5 8.9 38 8.4 SSW 7 9 4 5 1014.4 1010.5 0.0
 
Date/Time
WST
Temp
°C
App
Temp
°C
Dew
Point
Rel
Hum
%
Delta-T
°C
Wind Press
QNH
hPa
Press
MSL
hPa
Rain
since 9 am
mm
Dir
 
Spd
km/h
Gust
km/h
Spd
kts
Gust
kts
27/11:30pm 24.5 23.1 8.9 37 8.7 SSW 6 7 3 4 1014.6 1010.7 0.0
27/11:00pm 25.0 23.1 8.9 36 9.0 S 9 13 5 7 1014.5 1010.6 0.0
27/10:30pm 25.2 23.2 8.7 35 9.2 S 9 11 5 6 1014.9 1011.1 0.0
27/10:00pm 25.7 22.9 8.7 34 9.5 S 13 15 7 8 1014.7 1010.8 0.0
27/09:30pm 26.1 23.3 8.6 33 9.8 SSW 13 20 7 11 1015.0 1011.2 0.0
27/09:00pm 26.0 24.1 7.6 31 10.1 S 7 9 4 5 1015.0 1011.2 0.0
27/08:30pm 26.6 24.0 7.6 30 10.4 SSW 11 13 6 7 1015.0 1011.2 0.0
27/08:00pm 27.2 24.3 6.6 27 11.2 SSW 11 13 6 7 1014.9 1011.1 0.0
27/07:30pm 27.9 24.5 6.1 25 11.8 SSE 13 17 7 9 1014.7 1010.8 0.0
27/07:00pm 28.4 25.4 5.9 24 12.1 SW 11 15 6 8 1014.2 1010.3 0.0
27/06:30pm 29.1 25.9 5.2 22 12.8 WSW 11 15 6 8 1013.7 1009.9 0.0
27/06:00pm 29.8 26.2 5.1 21 13.2 WSW 13 19 7 10 1013.4 1009.6 0.0
27/05:30pm 30.5 28.0 5.0 20 13.7 WSW 7 11 4 6 1013.3 1009.5 0.0
27/05:00pm 30.9 27.7 5.3 20 13.9 WSW 11 20 6 11 1013.1 1009.2 0.0
27/04:30pm 31.1 27.2 5.5 20 13.9 W 15 22 8 12 1013.0 1009.1 0.0
27/04:00pm 31.8 28.6 5.3 19 14.4 SW 11 19 6 10 1013.0 1009.1 0.0
27/03:30pm 31.9 28.6 6.2 20 14.2 SW 13 22 7 12 1013.1 1009.2 0.0
27/03:00pm 31.4 29.5 6.5 21 13.8 W 6 17 3 9 1013.1 1009.2 0.0
27/02:30pm 31.0 27.6 6.1 21 13.6 SSW 13 24 7 13 1013.2 1009.3 0.0
27/02:00pm 31.1 27.5 6.9 22 13.5 SW 15 22 8 12 1013.4 1009.6 0.0
27/01:30pm 31.3 27.8 7.1 22 13.5 SW 15 28 8 15 1013.8 1010.0 0.0
27/01:00pm 31.6 29.1 6.6 21 13.9 SSE 9 20 5 11 1014.3 1010.4 0.0
27/12:30pm 30.3 27.9 6.9 23 12.9 SE 9 17 5 9 1014.7 1010.8 0.0
27/12:00pm 29.8 27.4 7.1 24 12.6 SSW 9 15 5 8 1015.3 1011.5 0.0
27/11:30am 30.2 27.7 8.0 25 12.5 SSE 11 19 6 10 1015.9 1012.0 0.0
27/11:00am 28.7 26.5 7.9 27 11.6 SE 9 19 5 10 1016.4 1012.6 0.0
27/10:30am 28.0 25.9 8.3 29 11.0 SSE 9 17 5 9 1017.0 1013.2 0.0
27/10:00am 27.3 24.8 8.2 30 10.6 SSE 11 19 6 10 1017.1 1013.3 0.0
27/09:30am 27.1 24.7 8.5 31 10.4 SE 11 17 6 9 1017.4 1013.5 0.0
27/09:00am 26.2 24.1 8.2 32 10.0 SE 9 13 5 7 1017.5 1013.6 0.0
27/08:30am 24.9 23.2 8.4 35 9.1 S 7 11 4 6 1017.5 1013.6 0.0
27/08:00am 22.5 22.1 8.2 40 7.8 CALM 0 0 0 0 1017.2 1013.4 0.0
27/07:30am 20.2 19.8 8.2 46 6.4 CALM 0 0 0 0 1017.0 1013.2 0.0
27/07:00am 18.9 18.3 7.4 47 6.0 CALM 0 0 0 0 1016.8 1013.0 0.0
27/06:30am 18.7 18.1 7.5 48 5.9 CALM 0 0 0 0 1016.6 1012.8 0.0
27/06:00am 19.0 18.5 7.8 48 5.9 CALM 0 0 0 0 1016.4 1012.6 0.0
27/05:30am 19.0 18.4 7.4 47 6.1 CALM 0 0 0 0 1016.1 1012.2 0.0
27/05:00am 19.6 19.0 7.4 45 6.4 CALM 0 0 0 0 1016.2 1012.4 0.0
27/04:30am 20.2 18.8 7.2 43 6.8 S 4 7 2 4 1016.1 1012.2 0.0
27/04:00am 20.3 19.7 7.3 43 6.9 CALM 0 0 0 0 1016.2 1012.4 0.0
27/03:30am 20.6 20.0 7.2 42 7.1 CALM 0 0 0 0 1016.3 1012.5 0.0
27/03:00am 21.4 19.9 6.9 39 7.6 S 4 7 2 4 1016.2 1012.4 0.0
27/02:30am 22.5 19.7 7.1 37 8.2 S 11 11 6 6 1016.2 1012.4 0.0
27/02:00am 23.3 21.0 7.4 36 8.5 SSE 9 11 5 6 1016.1 1012.2 0.0
27/01:30am 23.9 21.6 7.5 35 8.9 S 9 13 5 7 1016.3 1012.5 0.0
27/01:00am 24.3 21.5 7.0 33 9.3 S 11 13 6 7 1016.2 1012.4 0.0
27/12:30am 24.3 21.1 7.0 33 9.3 SSW 13 17 7 9 1016.1 1012.2 0.0
27/12:00am 24.1 21.7 6.8 33 9.2 S 9 11 5 6 1016.1 1012.2 0.0
 
Date/Time
WST
Temp
°C
App
Temp
°C
Dew
Point
Rel
Hum
%
Delta-T
°C
Wind Press
QNH
hPa
Press
MSL
hPa
Rain
since 9 am
mm
Dir
 
Spd
km/h
Gust
km/h
Spd
kts
Gust
kts
26/11:30pm 24.4 21.5 6.6 32 9.5 S 11 15 6 8 1016.2 1012.4 0.0
26/11:00pm 24.7 22.2 6.4 31 9.7 SSW 9 11 5 6 1016.0 1012.1 0.0
26/10:30pm 25.2 21.5 6.4 30 10.0 SSW 15 20 8 11 1016.2 1012.4 0.0
26/10:00pm 25.8 22.5 6.4 29 10.4 SSW 13 17 7 9 1016.3 1012.5 0.0
26/09:30pm 26.2 22.5 6.3 28 10.7 SSW 15 20 8 11 1016.4 1012.6 0.0
26/09:00pm 26.9 22.3 6.3 27 11.1 SSW 20 28 11 15 1016.4 1012.6 0.0
26/08:30pm 27.5 23.4 6.3 26 11.4 SSW 17 24 9 13 1016.2 1012.4 0.0
26/08:00pm 28.0 23.1 6.7 26 11.6 SSW 22 30 12 16 1015.9 1012.0 0.0
26/07:43pm 28.5 23.8 6.0 24 12.2 SSW 20 35 11 19 1015.8 1011.9 0.0
26/07:30pm 28.4 25.9 4.0 21 12.7 SW 6 7 3 4 1015.3 1011.5 0.0
26/07:00pm 29.1 26.4 3.9 20 13.2 SW 7 11 4 6 1015.1 1011.3 0.0
26/06:30pm 29.9 26.1 3.8 19 13.7 SW 13 17 7 9 1014.9 1011.1 0.0
26/06:00pm 30.4 25.7 3.4 18 14.1 SW 17 28 9 15 1014.6 1010.7 0.0
26/05:30pm 31.0 25.7 3.1 17 14.6 SW 20 26 11 14 1014.4 1010.5 0.0
26/05:00pm 31.5 26.3 3.5 17 14.7 SW 20 30 11 16 1014.3 1010.4 0.0
26/04:30pm 32.5 26.9 3.5 16 15.4 SW 22 32 12 17 1014.3 1010.4 0.0
26/04:00pm 32.8 27.6 3.7 16 15.5 WSW 20 30 11 16 1014.2 1010.3 0.0
26/03:30pm 33.2 28.7 4.0 16 15.7 SW 17 28 9 15 1014.1 1010.2 0.0
26/03:00pm 33.2 28.3 4.0 16 15.7 W 19 32 10 17 1014.1 1010.2 0.0
26/02:30pm 33.5 29.8 4.2 16 15.8 WSW 13 26 7 14 1014.1 1010.2 0.0
26/02:00pm 33.7 28.5 3.5 15 16.1 W 20 32 11 17 1014.3 1010.4 0.0
26/01:30pm 33.4 28.5 4.2 16 15.7 W 19 30 10 16 1014.4 1010.5 0.0
26/01:00pm 34.3 30.5 4.0 15 16.3 W 13 24 7 13 1014.6 1010.7 0.0
26/12:30pm 34.2 30.4 3.9 15 16.3 WNW 13 28 7 15 1015.0 1011.2 0.0

Other Formats:

Comma delimited format used in spreadsheet applications
http://www.bom.gov.au/fwo/IDW60801/IDW60801.99313.axf

JavaScript Object Notation format (JSON) in row-major order
http://www.bom.gov.au/fwo/IDW60801/IDW60801.99313.json